Portada
Imágenes satélite Pronóstico 10 díasClimaPredicción Marítima Ciclones Rayo AeropuertosFAQ Noticias Acerca
El tiempo : Europa África América del Norte América del Sur Asia Australia-Oceanía Otros
Idiomas Contacto

Vitória, Espírito Santo, Brasil

latitud: 20-16S, longitud: 040-17W, altitud: 4 m


METAR: SBVT 021600Z 18014KT 9999 FEW020 SCT040 BKN070 23/16 Q1020
TAF: SBVT 021000Z 0212/0312 04011KT 9999 SCT020 TX30/0215Z TN19/0307Z BECMG 0302/0304 32003KT RMK PDU

Hora: 13:55 (16:55 UTC)

Observación

El informe se hizo hace 55 minutos, a las 16:00 UTC
Viento 14 kt del sur
Temperatura 23°C
Humedad 65%
Presión 1020 hPa
Visibilidad 10 km o más
Escasas nubes a una altura de 2000 ft
Nubes dispersas a una altura de 4000 ft
Cielo nuboso a una altura de 7000 ft

Cambiar las unidades

Pronóstico

El informe se hizo hace 6 horas y 55 minutos, a las 10:00 UTC
Pronóstico válido del 02 a las 12 UTC al 03 a las 12 UTC
Viento 11 kt del noreste
Visibilidad 10 km o más
Nubes dispersas a una altura de 2000 ft
Evolucionando progresivamente
del 03 a las 02 UTC al 03 a las 04 UTC
Viento 3 kt del noroeste
La información que se ofrece en estas páginas está sujeta a una cláusula de exención de responsabilidad
El tiempo : Europa África América del Norte América del Sur Asia Australia-Oceanía Otros
Imágenes satélite Pronóstico 10 díasClimaPredicción Marítima Ciclones Rayo AeropuertosFAQ Idiomas Contacto Noticias Acerca